sensor_id;sensor_type;location;lat;lon;timestamp;P1;durP1;ratioP1;P2;durP2;ratioP2
37367;SDS011;23240;43.210;27.910;2022-11-20T00:00:43;7.53;;;3.10;;
37367;SDS011;23240;43.210;27.910;2022-11-20T00:03:09;8.50;;;2.95;;
37367;SDS011;23240;43.210;27.910;2022-11-20T00:05:34;6.35;;;2.75;;
37367;SDS011;23240;43.210;27.910;2022-11-20T00:08:00;7.38;;;3.10;;
37367;SDS011;23240;43.210;27.910;2022-11-20T00:10:25;8.73;;;3.38;;
37367;SDS011;23240;43.210;27.910;2022-11-20T00:12:51;6.50;;;3.10;;
37367;SDS011;23240;43.210;27.910;2022-11-20T00:15:17;10.77;;;3.50;;
37367;SDS011;23240;43.210;27.910;2022-11-20T00:17:42;9.07;;;3.08;;
37367;SDS011;23240;43.210;27.910;2022-11-20T00:20:08;8.70;;;2.92;;
37367;SDS011;23240;43.210;27.910;2022-11-20T00:22:34;10.27;;;3.30;;
37367;SDS011;23240;43.210;27.910;2022-11-20T00:24:59;10.40;;;2.95;;
37367;SDS011;23240;43.210;27.910;2022-11-20T00:27:24;7.35;;;2.55;;
37367;SDS011;23240;43.210;27.910;2022-11-20T00:29:50;6.60;;;3.17;;
37367;SDS011;23240;43.210;27.910;2022-11-20T00:32:15;5.38;;;2.92;;
37367;SDS011;23240;43.210;27.910;2022-11-20T00:34:41;6.72;;;3.03;;
37367;SDS011;23240;43.210;27.910;2022-11-20T00:37:06;9.27;;;3.90;;
37367;SDS011;23240;43.210;27.910;2022-11-20T00:39:32;6.18;;;3.50;;
37367;SDS011;23240;43.210;27.910;2022-11-20T00:41:57;6.72;;;2.70;;
37367;SDS011;23240;43.210;27.910;2022-11-20T00:44:23;7.13;;;2.90;;
37367;SDS011;23240;43.210;27.910;2022-11-20T00:46:48;4.35;;;2.63;;
37367;SDS011;23240;43.210;27.910;2022-11-20T00:49:14;5.85;;;2.85;;
37367;SDS011;23240;43.210;27.910;2022-11-20T00:51:39;6.13;;;3.08;;
37367;SDS011;23240;43.210;27.910;2022-11-20T00:54:04;5.60;;;2.28;;
37367;SDS011;23240;43.210;27.910;2022-11-20T00:56:30;5.28;;;2.72;;
37367;SDS011;23240;43.210;27.910;2022-11-20T00:58:58;5.90;;;2.83;;
37367;SDS011;23240;43.210;27.910;2022-11-20T01:01:25;12.23;;;3.42;;
37367;SDS011;23240;43.210;27.910;2022-11-20T01:03:51;7.82;;;3.05;;
37367;SDS011;23240;43.210;27.910;2022-11-20T01:08:45;7.00;;;2.80;;
37367;SDS011;23240;43.210;27.910;2022-11-20T01:11:12;6.40;;;2.97;;
37367;SDS011;23240;43.210;27.910;2022-11-20T01:13:39;7.50;;;2.97;;
37367;SDS011;23240;43.210;27.910;2022-11-20T01:18:36;7.38;;;3.25;;
37367;SDS011;23240;43.210;27.910;2022-11-20T01:21:07;6.22;;;2.85;;
37367;SDS011;23240;43.210;27.910;2022-11-20T01:23:35;9.23;;;2.75;;
37367;SDS011;23240;43.210;27.910;2022-11-20T01:26:04;4.50;;;2.78;;
37367;SDS011;23240;43.210;27.910;2022-11-20T01:28:31;5.07;;;2.90;;
37367;SDS011;23240;43.210;27.910;2022-11-20T01:30:57;4.50;;;2.35;;
37367;SDS011;23240;43.210;27.910;2022-11-20T01:33:23;8.35;;;3.47;;
37367;SDS011;23240;43.210;27.910;2022-11-20T01:35:48;9.50;;;2.92;;
37367;SDS011;23240;43.210;27.910;2022-11-20T01:38:17;6.18;;;2.50;;
37367;SDS011;23240;43.210;27.910;2022-11-20T01:40:45;2.90;;;2.22;;
37367;SDS011;23240;43.210;27.910;2022-11-20T01:43:14;9.38;;;2.92;;
37367;SDS011;23240;43.210;27.910;2022-11-20T01:48:44;5.28;;;3.22;;
37367;SDS011;23240;43.210;27.910;2022-11-20T01:54:06;4.15;;;2.33;;
37367;SDS011;23240;43.210;27.910;2022-11-20T01:56:37;6.72;;;2.83;;
37367;SDS011;23240;43.210;27.910;2022-11-20T01:59:05;10.80;;;3.90;;
37367;SDS011;23240;43.210;27.910;2022-11-20T02:01:34;10.30;;;3.30;;
37367;SDS011;23240;43.210;27.910;2022-11-20T02:04:00;5.55;;;2.72;;
37367;SDS011;23240;43.210;27.910;2022-11-20T02:06:30;10.55;;;3.13;;
37367;SDS011;23240;43.210;27.910;2022-11-20T02:09:01;4.85;;;2.75;;
37367;SDS011;23240;43.210;27.910;2022-11-20T02:11:27;7.28;;;2.67;;
37367;SDS011;23240;43.210;27.910;2022-11-20T02:13:55;8.48;;;3.25;;
37367;SDS011;23240;43.210;27.910;2022-11-20T02:16:25;6.25;;;2.80;;
37367;SDS011;23240;43.210;27.910;2022-11-20T02:18:56;4.25;;;2.58;;
37367;SDS011;23240;43.210;27.910;2022-11-20T02:21:46;13.13;;;3.17;;
37367;SDS011;23240;43.210;27.910;2022-11-20T02:24:18;6.40;;;2.88;;
37367;SDS011;23240;43.210;27.910;2022-11-20T02:26:48;5.28;;;2.50;;
37367;SDS011;23240;43.210;27.910;2022-11-20T02:29:18;7.85;;;3.13;;
37367;SDS011;23240;43.210;27.910;2022-11-20T02:31:50;7.32;;;3.40;;
37367;SDS011;23240;43.210;27.910;2022-11-20T02:34:17;5.97;;;2.70;;
37367;SDS011;23240;43.210;27.910;2022-11-20T02:36:42;9.80;;;3.33;;
37367;SDS011;23240;43.210;27.910;2022-11-20T02:39:09;5.80;;;3.13;;
37367;SDS011;23240;43.210;27.910;2022-11-20T02:41:37;5.80;;;2.72;;
37367;SDS011;23240;43.210;27.910;2022-11-20T02:44:03;8.02;;;2.97;;
37367;SDS011;23240;43.210;27.910;2022-11-20T02:46:30;5.97;;;3.08;;
37367;SDS011;23240;43.210;27.910;2022-11-20T02:48:56;5.22;;;2.70;;
37367;SDS011;23240;43.210;27.910;2022-11-20T02:51:22;8.75;;;3.25;;
37367;SDS011;23240;43.210;27.910;2022-11-20T02:53:48;9.13;;;2.85;;
37367;SDS011;23240;43.210;27.910;2022-11-20T02:56:14;7.18;;;3.15;;
37367;SDS011;23240;43.210;27.910;2022-11-20T02:58:40;5.38;;;2.90;;
37367;SDS011;23240;43.210;27.910;2022-11-20T03:01:05;6.65;;;2.88;;
37367;SDS011;23240;43.210;27.910;2022-11-20T03:03:31;8.25;;;3.33;;
37367;SDS011;23240;43.210;27.910;2022-11-20T03:05:58;4.85;;;2.72;;
37367;SDS011;23240;43.210;27.910;2022-11-20T03:08:24;6.20;;;2.70;;
37367;SDS011;23240;43.210;27.910;2022-11-20T03:10:49;4.65;;;2.90;;
37367;SDS011;23240;43.210;27.910;2022-11-20T03:13:15;6.40;;;2.83;;
37367;SDS011;23240;43.210;27.910;2022-11-20T03:15:40;7.95;;;3.33;;
37367;SDS011;23240;43.210;27.910;2022-11-20T03:18:06;3.75;;;2.35;;
37367;SDS011;23240;43.210;27.910;2022-11-20T03:20:32;6.22;;;2.58;;
37367;SDS011;23240;43.210;27.910;2022-11-20T03:22:59;6.18;;;2.90;;
37367;SDS011;23240;43.210;27.910;2022-11-20T03:25:25;9.98;;;3.20;;
37367;SDS011;23240;43.210;27.910;2022-11-20T03:27:50;6.75;;;2.40;;
37367;SDS011;23240;43.210;27.910;2022-11-20T03:30:16;6.50;;;2.78;;
37367;SDS011;23240;43.210;27.910;2022-11-20T03:32:42;5.28;;;2.70;;
37367;SDS011;23240;43.210;27.910;2022-11-20T03:35:08;6.28;;;2.28;;
37367;SDS011;23240;43.210;27.910;2022-11-20T03:37:33;10.90;;;4.20;;
37367;SDS011;23240;43.210;27.910;2022-11-20T03:39:59;6.18;;;2.72;;
37367;SDS011;23240;43.210;27.910;2022-11-20T03:42:24;4.85;;;2.22;;
37367;SDS011;23240;43.210;27.910;2022-11-20T03:45:09;3.53;;;2.30;;
37367;SDS011;23240;43.210;27.910;2022-11-20T03:47:34;11.55;;;3.28;;
37367;SDS011;23240;43.210;27.910;2022-11-20T03:50:00;10.32;;;3.05;;
37367;SDS011;23240;43.210;27.910;2022-11-20T03:52:25;4.78;;;2.42;;
37367;SDS011;23240;43.210;27.910;2022-11-20T03:54:50;4.65;;;2.75;;
37367;SDS011;23240;43.210;27.910;2022-11-20T03:57:16;6.25;;;2.55;;
37367;SDS011;23240;43.210;27.910;2022-11-20T03:59:41;8.93;;;2.72;;
37367;SDS011;23240;43.210;27.910;2022-11-20T04:02:07;3.47;;;2.05;;
37367;SDS011;23240;43.210;27.910;2022-11-20T04:04:32;4.18;;;2.38;;
37367;SDS011;23240;43.210;27.910;2022-11-20T04:06:58;5.28;;;3.00;;
37367;SDS011;23240;43.210;27.910;2022-11-20T04:09:24;4.38;;;2.15;;
37367;SDS011;23240;43.210;27.910;2022-11-20T04:11:49;2.47;;;1.95;;
37367;SDS011;23240;43.210;27.910;2022-11-20T04:14:15;2.20;;;1.98;;
37367;SDS011;23240;43.210;27.910;2022-11-20T04:16:41;4.97;;;2.25;;
37367;SDS011;23240;43.210;27.910;2022-11-20T04:19:12;5.82;;;3.30;;
37367;SDS011;23240;43.210;27.910;2022-11-20T04:21:39;4.50;;;2.80;;
37367;SDS011;23240;43.210;27.910;2022-11-20T04:24:04;3.72;;;2.13;;
37367;SDS011;23240;43.210;27.910;2022-11-20T04:26:30;4.20;;;2.38;;
37367;SDS011;23240;43.210;27.910;2022-11-20T04:28:56;3.72;;;2.55;;
37367;SDS011;23240;43.210;27.910;2022-11-20T04:31:23;4.88;;;2.58;;
37367;SDS011;23240;43.210;27.910;2022-11-20T04:33:50;4.72;;;2.50;;
37367;SDS011;23240;43.210;27.910;2022-11-20T04:36:17;3.03;;;2.30;;
37367;SDS011;23240;43.210;27.910;2022-11-20T04:38:53;4.13;;;2.85;;
37367;SDS011;23240;43.210;27.910;2022-11-20T04:41:30;6.15;;;2.50;;
37367;SDS011;23240;43.210;27.910;2022-11-20T04:46:29;2.00;;;1.73;;
37367;SDS011;23240;43.210;27.910;2022-11-20T04:48:56;2.40;;;1.77;;
37367;SDS011;23240;43.210;27.910;2022-11-20T04:51:22;2.80;;;1.90;;
37367;SDS011;23240;43.210;27.910;2022-11-20T04:53:47;6.43;;;1.98;;
37367;SDS011;23240;43.210;27.910;2022-11-20T04:56:13;8.48;;;2.47;;
37367;SDS011;23240;43.210;27.910;2022-11-20T04:58:39;4.78;;;2.28;;
37367;SDS011;23240;43.210;27.910;2022-11-20T05:01:06;4.15;;;2.17;;
37367;SDS011;23240;43.210;27.910;2022-11-20T05:03:31;2.03;;;1.63;;
37367;SDS011;23240;43.210;27.910;2022-11-20T05:06:00;3.65;;;2.05;;
37367;SDS011;23240;43.210;27.910;2022-11-20T05:08:28;4.70;;;2.22;;
37367;SDS011;23240;43.210;27.910;2022-11-20T05:10:54;4.57;;;2.28;;
37367;SDS011;23240;43.210;27.910;2022-11-20T05:13:24;2.45;;;1.70;;
37367;SDS011;23240;43.210;27.910;2022-11-20T05:15:49;4.00;;;1.88;;
37367;SDS011;23240;43.210;27.910;2022-11-20T05:18:15;3.60;;;2.10;;
37367;SDS011;23240;43.210;27.910;2022-11-20T05:20:40;9.32;;;2.47;;
37367;SDS011;23240;43.210;27.910;2022-11-20T05:23:05;10.60;;;2.00;;
37367;SDS011;23240;43.210;27.910;2022-11-20T05:25:31;6.63;;;2.00;;
37367;SDS011;23240;43.210;27.910;2022-11-20T05:27:56;2.92;;;2.00;;
37367;SDS011;23240;43.210;27.910;2022-11-20T05:30:22;3.10;;;1.60;;
37367;SDS011;23240;43.210;27.910;2022-11-20T05:32:47;4.03;;;2.25;;
37367;SDS011;23240;43.210;27.910;2022-11-20T05:35:13;1.27;;;1.15;;
37367;SDS011;23240;43.210;27.910;2022-11-20T05:37:38;5.10;;;2.13;;
37367;SDS011;23240;43.210;27.910;2022-11-20T05:40:04;1.85;;;1.60;;
37367;SDS011;23240;43.210;27.910;2022-11-20T05:42:30;6.03;;;1.73;;
37367;SDS011;23240;43.210;27.910;2022-11-20T05:44:59;7.28;;;2.63;;
37367;SDS011;23240;43.210;27.910;2022-11-20T05:47:27;2.75;;;1.90;;
37367;SDS011;23240;43.210;27.910;2022-11-20T05:49:56;4.45;;;1.90;;
37367;SDS011;23240;43.210;27.910;2022-11-20T05:52:21;8.57;;;2.95;;
37367;SDS011;23240;43.210;27.910;2022-11-20T05:54:47;4.05;;;1.60;;
37367;SDS011;23240;43.210;27.910;2022-11-20T05:57:12;4.07;;;1.90;;
37367;SDS011;23240;43.210;27.910;2022-11-20T05:59:38;7.15;;;2.05;;
37367;SDS011;23240;43.210;27.910;2022-11-20T06:02:03;5.50;;;2.50;;
37367;SDS011;23240;43.210;27.910;2022-11-20T06:04:29;2.88;;;2.08;;
37367;SDS011;23240;43.210;27.910;2022-11-20T06:06:54;6.15;;;2.30;;
37367;SDS011;23240;43.210;27.910;2022-11-20T06:09:20;4.07;;;1.80;;
37367;SDS011;23240;43.210;27.910;2022-11-20T06:11:45;7.60;;;2.90;;
37367;SDS011;23240;43.210;27.910;2022-11-20T06:14:10;2.05;;;1.85;;
37367;SDS011;23240;43.210;27.910;2022-11-20T06:16:36;3.10;;;2.08;;
37367;SDS011;23240;43.210;27.910;2022-11-20T06:19:01;3.20;;;1.95;;
37367;SDS011;23240;43.210;27.910;2022-11-20T06:21:27;4.93;;;1.77;;
37367;SDS011;23240;43.210;27.910;2022-11-20T06:23:53;5.13;;;1.80;;
37367;SDS011;23240;43.210;27.910;2022-11-20T06:26:20;3.55;;;2.20;;
37367;SDS011;23240;43.210;27.910;2022-11-20T06:28:47;6.07;;;1.90;;
37367;SDS011;23240;43.210;27.910;2022-11-20T06:31:14;3.70;;;2.08;;
37367;SDS011;23240;43.210;27.910;2022-11-20T06:33:41;3.15;;;2.13;;
37367;SDS011;23240;43.210;27.910;2022-11-20T06:36:07;3.45;;;1.98;;
37367;SDS011;23240;43.210;27.910;2022-11-20T06:38:35;4.97;;;2.30;;
37367;SDS011;23240;43.210;27.910;2022-11-20T06:41:00;5.20;;;1.80;;
37367;SDS011;23240;43.210;27.910;2022-11-20T06:43:28;1.50;;;1.40;;
37367;SDS011;23240;43.210;27.910;2022-11-20T06:45:54;4.78;;;1.92;;
37367;SDS011;23240;43.210;27.910;2022-11-20T06:48:21;1.80;;;1.60;;
37367;SDS011;23240;43.210;27.910;2022-11-20T06:50:48;5.68;;;2.63;;
37367;SDS011;23240;43.210;27.910;2022-11-20T06:53:13;2.67;;;1.70;;
37367;SDS011;23240;43.210;27.910;2022-11-20T06:55:43;3.42;;;1.83;;
37367;SDS011;23240;43.210;27.910;2022-11-20T06:58:09;9.63;;;2.60;;
37367;SDS011;23240;43.210;27.910;2022-11-20T07:00:36;14.60;;;2.60;;
37367;SDS011;23240;43.210;27.910;2022-11-20T07:03:05;3.78;;;2.15;;
37367;SDS011;23240;43.210;27.910;2022-11-20T07:05:32;2.70;;;1.92;;
37367;SDS011;23240;43.210;27.910;2022-11-20T07:07:58;3.85;;;1.92;;
37367;SDS011;23240;43.210;27.910;2022-11-20T07:10:24;4.93;;;2.10;;
37367;SDS011;23240;43.210;27.910;2022-11-20T07:12:50;5.78;;;2.20;;
37367;SDS011;23240;43.210;27.910;2022-11-20T07:15:17;8.68;;;2.60;;
37367;SDS011;23240;43.210;27.910;2022-11-20T07:17:43;6.68;;;2.90;;
37367;SDS011;23240;43.210;27.910;2022-11-20T07:20:09;3.65;;;2.30;;
37367;SDS011;23240;43.210;27.910;2022-11-20T07:22:34;6.88;;;2.40;;
37367;SDS011;23240;43.210;27.910;2022-11-20T07:25:00;5.82;;;2.28;;
37367;SDS011;23240;43.210;27.910;2022-11-20T07:27:26;4.32;;;2.10;;
37367;SDS011;23240;43.210;27.910;2022-11-20T07:29:52;5.30;;;2.65;;
37367;SDS011;23240;43.210;27.910;2022-11-20T07:32:17;8.73;;;2.65;;
37367;SDS011;23240;43.210;27.910;2022-11-20T07:34:43;4.45;;;1.70;;
37367;SDS011;23240;43.210;27.910;2022-11-20T07:37:08;5.00;;;2.28;;
37367;SDS011;23240;43.210;27.910;2022-11-20T07:39:34;3.30;;;2.15;;
37367;SDS011;23240;43.210;27.910;2022-11-20T07:41:59;4.88;;;2.67;;
37367;SDS011;23240;43.210;27.910;2022-11-20T07:44:25;6.47;;;2.05;;
37367;SDS011;23240;43.210;27.910;2022-11-20T07:46:50;2.35;;;1.70;;
37367;SDS011;23240;43.210;27.910;2022-11-20T07:49:16;5.03;;;2.08;;
37367;SDS011;23240;43.210;27.910;2022-11-20T07:51:41;4.38;;;2.00;;
37367;SDS011;23240;43.210;27.910;2022-11-20T07:54:06;2.50;;;1.65;;
37367;SDS011;23240;43.210;27.910;2022-11-20T07:56:32;1.95;;;1.42;;
37367;SDS011;23240;43.210;27.910;2022-11-20T07:58:57;3.90;;;2.47;;
37367;SDS011;23240;43.210;27.910;2022-11-20T08:01:23;2.78;;;1.77;;
37367;SDS011;23240;43.210;27.910;2022-11-20T08:03:48;3.80;;;2.00;;
37367;SDS011;23240;43.210;27.910;2022-11-20T08:06:13;3.72;;;1.98;;
37367;SDS011;23240;43.210;27.910;2022-11-20T08:08:39;8.55;;;2.60;;
37367;SDS011;23240;43.210;27.910;2022-11-20T08:11:05;10.10;;;2.55;;
37367;SDS011;23240;43.210;27.910;2022-11-20T08:13:49;6.75;;;2.58;;
37367;SDS011;23240;43.210;27.910;2022-11-20T08:18:58;3.35;;;2.00;;
37367;SDS011;23240;43.210;27.910;2022-11-20T08:21:24;4.05;;;1.90;;
37367;SDS011;23240;43.210;27.910;2022-11-20T08:23:49;7.00;;;2.13;;
37367;SDS011;23240;43.210;27.910;2022-11-20T08:26:15;4.32;;;2.30;;
37367;SDS011;23240;43.210;27.910;2022-11-20T08:28:41;5.95;;;1.80;;
37367;SDS011;23240;43.210;27.910;2022-11-20T08:31:06;4.60;;;1.90;;
37367;SDS011;23240;43.210;27.910;2022-11-20T08:33:32;3.67;;;1.95;;
37367;SDS011;23240;43.210;27.910;2022-11-20T08:35:58;3.30;;;2.15;;
37367;SDS011;23240;43.210;27.910;2022-11-20T08:38:25;5.50;;;2.45;;
37367;SDS011;23240;43.210;27.910;2022-11-20T08:40:50;6.03;;;2.28;;
37367;SDS011;23240;43.210;27.910;2022-11-20T08:43:34;4.82;;;2.13;;
37367;SDS011;23240;43.210;27.910;2022-11-20T08:46:00;3.95;;;2.15;;
37367;SDS011;23240;43.210;27.910;2022-11-20T08:48:25;5.47;;;2.08;;
37367;SDS011;23240;43.210;27.910;2022-11-20T08:50:51;6.57;;;2.25;;
37367;SDS011;23240;43.210;27.910;2022-11-20T08:53:16;4.00;;;2.45;;
37367;SDS011;23240;43.210;27.910;2022-11-20T08:55:42;2.25;;;1.63;;
37367;SDS011;23240;43.210;27.910;2022-11-20T08:58:07;5.78;;;1.65;;
37367;SDS011;23240;43.210;27.910;2022-11-20T09:00:33;4.43;;;1.95;;
37367;SDS011;23240;43.210;27.910;2022-11-20T09:02:59;4.53;;;2.30;;
37367;SDS011;23240;43.210;27.910;2022-11-20T09:05:26;5.25;;;1.92;;
37367;SDS011;23240;43.210;27.910;2022-11-20T09:07:51;4.22;;;1.70;;
37367;SDS011;23240;43.210;27.910;2022-11-20T09:10:17;4.20;;;2.13;;
37367;SDS011;23240;43.210;27.910;2022-11-20T09:12:42;9.35;;;3.28;;
37367;SDS011;23240;43.210;27.910;2022-11-20T09:15:08;3.03;;;2.05;;
37367;SDS011;23240;43.210;27.910;2022-11-20T09:17:34;3.03;;;1.75;;
37367;SDS011;23240;43.210;27.910;2022-11-20T09:19:59;4.35;;;2.05;;
37367;SDS011;23240;43.210;27.910;2022-11-20T09:22:25;2.10;;;1.65;;
37367;SDS011;23240;43.210;27.910;2022-11-20T09:24:50;7.60;;;2.80;;
37367;SDS011;23240;43.210;27.910;2022-11-20T09:27:16;7.22;;;2.28;;
37367;SDS011;23240;43.210;27.910;2022-11-20T09:29:46;6.53;;;2.50;;
37367;SDS011;23240;43.210;27.910;2022-11-20T09:32:11;3.38;;;1.90;;
37367;SDS011;23240;43.210;27.910;2022-11-20T09:34:37;2.63;;;1.73;;
37367;SDS011;23240;43.210;27.910;2022-11-20T09:37:03;3.85;;;2.13;;
37367;SDS011;23240;43.210;27.910;2022-11-20T09:39:28;5.85;;;2.13;;
37367;SDS011;23240;43.210;27.910;2022-11-20T09:49:57;6.63;;;2.30;;
37367;SDS011;23240;43.210;27.910;2022-11-20T09:53:19;6.25;;;1.95;;
37367;SDS011;23240;43.210;27.910;2022-11-20T09:55:24;4.60;;;2.45;;
37367;SDS011;23240;43.210;27.910;2022-11-20T09:57:51;5.45;;;2.40;;
37367;SDS011;23240;43.210;27.910;2022-11-20T10:00:17;6.80;;;2.03;;
37367;SDS011;23240;43.210;27.910;2022-11-20T10:02:54;3.97;;;2.15;;
37367;SDS011;23240;43.210;27.910;2022-11-20T10:05:31;4.57;;;1.77;;
37367;SDS011;23240;43.210;27.910;2022-11-20T10:08:18;7.03;;;2.28;;
37367;SDS011;23240;43.210;27.910;2022-11-20T10:11:08;6.95;;;2.15;;
37367;SDS011;23240;43.210;27.910;2022-11-20T10:14:01;5.65;;;2.22;;
37367;SDS011;23240;43.210;27.910;2022-11-20T10:30:23;8.23;;;1.92;;
37367;SDS011;23240;43.210;27.910;2022-11-20T10:35:45;3.55;;;1.60;;
37367;SDS011;23240;43.210;27.910;2022-11-20T10:40:51;5.68;;;2.60;;
37367;SDS011;23240;43.210;27.910;2022-11-20T10:43:39;3.05;;;2.03;;
37367;SDS011;23240;43.210;27.910;2022-11-20T10:46:10;6.05;;;2.72;;
37367;SDS011;23240;43.210;27.910;2022-11-20T10:48:40;3.72;;;2.00;;
37367;SDS011;23240;43.210;27.910;2022-11-20T10:53:43;9.60;;;2.67;;
37367;SDS011;23240;43.210;27.910;2022-11-20T10:56:19;2.97;;;1.63;;
37367;SDS011;23240;43.210;27.910;2022-11-20T10:58:59;6.45;;;2.72;;
37367;SDS011;23240;43.210;27.910;2022-11-20T11:01:44;5.72;;;2.58;;
37367;SDS011;23240;43.210;27.910;2022-11-20T11:07:20;7.75;;;2.80;;
37367;SDS011;23240;43.210;27.910;2022-11-20T11:09:49;6.55;;;2.15;;
37367;SDS011;23240;43.210;27.910;2022-11-20T11:12:17;5.97;;;2.55;;
37367;SDS011;23240;43.210;27.910;2022-11-20T11:14:51;4.40;;;2.60;;
37367;SDS011;23240;43.210;27.910;2022-11-20T11:17:28;8.02;;;2.88;;
37367;SDS011;23240;43.210;27.910;2022-11-20T11:20:05;2.75;;;2.15;;
37367;SDS011;23240;43.210;27.910;2022-11-20T11:22:34;4.95;;;2.45;;
37367;SDS011;23240;43.210;27.910;2022-11-20T11:25:11;3.88;;;2.20;;
37367;SDS011;23240;43.210;27.910;2022-11-20T11:27:55;6.53;;;2.13;;
37367;SDS011;23240;43.210;27.910;2022-11-20T11:30:23;6.32;;;2.78;;
37367;SDS011;23240;43.210;27.910;2022-11-20T11:32:50;6.22;;;2.80;;
37367;SDS011;23240;43.210;27.910;2022-11-20T11:37:53;4.60;;;2.20;;
37367;SDS011;23240;43.210;27.910;2022-11-20T11:40:27;7.43;;;2.78;;
37367;SDS011;23240;43.210;27.910;2022-11-20T11:42:56;4.32;;;1.88;;
37367;SDS011;23240;43.210;27.910;2022-11-20T11:45:29;9.00;;;3.13;;
37367;SDS011;23240;43.210;27.910;2022-11-20T11:47:58;8.32;;;2.85;;
37367;SDS011;23240;43.210;27.910;2022-11-20T11:50:28;3.97;;;2.42;;
37367;SDS011;23240;43.210;27.910;2022-11-20T11:53:07;6.35;;;2.67;;
37367;SDS011;23240;43.210;27.910;2022-11-20T11:58:14;8.52;;;3.25;;
37367;SDS011;23240;43.210;27.910;2022-11-20T12:00:41;6.85;;;2.97;;
37367;SDS011;23240;43.210;27.910;2022-11-20T12:03:24;7.93;;;3.13;;
37367;SDS011;23240;43.210;27.910;2022-11-20T12:06:11;5.22;;;2.78;;
37367;SDS011;23240;43.210;27.910;2022-11-20T12:14:04;6.18;;;2.38;;
37367;SDS011;23240;43.210;27.910;2022-11-20T12:16:35;8.38;;;2.63;;
37367;SDS011;23240;43.210;27.910;2022-11-20T12:19:03;10.00;;;3.38;;
37367;SDS011;23240;43.210;27.910;2022-11-20T12:21:43;10.65;;;2.42;;
37367;SDS011;23240;43.210;27.910;2022-11-20T12:30:12;4.05;;;2.40;;
37367;SDS011;23240;43.210;27.910;2022-11-20T12:41:13;3.10;;;1.77;;
37367;SDS011;23240;43.210;27.910;2022-11-20T12:47:16;6.28;;;2.28;;
37367;SDS011;23240;43.210;27.910;2022-11-20T12:55:15;12.93;;;2.38;;
37367;SDS011;23240;43.210;27.910;2022-11-20T13:00:23;6.80;;;1.80;;
37367;SDS011;23240;43.210;27.910;2022-11-20T13:05:54;10.25;;;2.67;;
37367;SDS011;23240;43.210;27.910;2022-11-20T13:11:13;8.80;;;2.08;;
37367;SDS011;23240;43.210;27.910;2022-11-20T13:19:03;3.47;;;2.17;;
37367;SDS011;23240;43.210;27.910;2022-11-20T13:24:25;8.50;;;2.78;;
37367;SDS011;23240;43.210;27.910;2022-11-20T13:29:30;6.72;;;2.30;;
37367;SDS011;23240;43.210;27.910;2022-11-20T13:34:30;16.48;;;3.28;;
37367;SDS011;23240;43.210;27.910;2022-11-20T13:36:56;8.93;;;2.92;;
37367;SDS011;23240;43.210;27.910;2022-11-20T13:39:26;11.35;;;2.83;;
37367;SDS011;23240;43.210;27.910;2022-11-20T13:41:54;11.35;;;3.35;;
37367;SDS011;23240;43.210;27.910;2022-11-20T13:44:53;11.23;;;2.30;;
37367;SDS011;23240;43.210;27.910;2022-11-20T13:47:27;8.52;;;2.25;;
37367;SDS011;23240;43.210;27.910;2022-11-20T13:49:57;4.68;;;2.22;;
37367;SDS011;23240;43.210;27.910;2022-11-20T14:00:58;4.85;;;2.22;;
37367;SDS011;23240;43.210;27.910;2022-11-20T14:03:33;8.10;;;3.65;;
37367;SDS011;23240;43.210;27.910;2022-11-20T14:06:03;4.63;;;2.42;;
37367;SDS011;23240;43.210;27.910;2022-11-20T14:08:48;11.95;;;3.40;;
37367;SDS011;23240;43.210;27.910;2022-11-20T14:13:57;3.22;;;1.92;;
37367;SDS011;23240;43.210;27.910;2022-11-20T14:16:29;8.20;;;2.70;;
37367;SDS011;23240;43.210;27.910;2022-11-20T14:19:21;3.97;;;2.20;;
37367;SDS011;23240;43.210;27.910;2022-11-20T14:21:54;9.15;;;2.63;;
37367;SDS011;23240;43.210;27.910;2022-11-20T14:24:32;8.07;;;2.80;;
37367;SDS011;23240;43.210;27.910;2022-11-20T14:26:58;8.70;;;2.85;;
37367;SDS011;23240;43.210;27.910;2022-11-20T14:29:26;9.68;;;2.58;;
37367;SDS011;23240;43.210;27.910;2022-11-20T14:31:55;13.18;;;3.95;;
37367;SDS011;23240;43.210;27.910;2022-11-20T14:34:22;3.80;;;2.28;;
37367;SDS011;23240;43.210;27.910;2022-11-20T14:37:00;3.47;;;2.17;;
37367;SDS011;23240;43.210;27.910;2022-11-20T14:39:34;9.45;;;2.55;;
37367;SDS011;23240;43.210;27.910;2022-11-20T14:42:01;7.95;;;2.67;;
37367;SDS011;23240;43.210;27.910;2022-11-20T14:44:28;6.93;;;2.60;;
37367;SDS011;23240;43.210;27.910;2022-11-20T14:46:57;9.85;;;2.70;;
37367;SDS011;23240;43.210;27.910;2022-11-20T14:49:25;7.22;;;2.75;;
37367;SDS011;23240;43.210;27.910;2022-11-20T14:52:01;11.70;;;3.28;;
37367;SDS011;23240;43.210;27.910;2022-11-20T14:54:49;9.02;;;2.92;;
37367;SDS011;23240;43.210;27.910;2022-11-20T14:57:23;12.38;;;3.83;;
37367;SDS011;23240;43.210;27.910;2022-11-20T14:59:49;8.00;;;3.13;;
37367;SDS011;23240;43.210;27.910;2022-11-20T15:02:14;10.65;;;3.05;;
37367;SDS011;23240;43.210;27.910;2022-11-20T15:04:44;8.80;;;2.90;;
37367;SDS011;23240;43.210;27.910;2022-11-20T15:07:11;4.45;;;2.33;;
37367;SDS011;23240;43.210;27.910;2022-11-20T15:09:48;6.07;;;2.65;;
37367;SDS011;23240;43.210;27.910;2022-11-20T15:12:24;11.80;;;3.35;;
37367;SDS011;23240;43.210;27.910;2022-11-20T15:14:50;3.65;;;2.30;;
37367;SDS011;23240;43.210;27.910;2022-11-20T15:17:15;12.15;;;3.33;;
37367;SDS011;23240;43.210;27.910;2022-11-20T15:19:40;11.60;;;3.10;;
37367;SDS011;23240;43.210;27.910;2022-11-20T15:22:11;17.48;;;3.63;;
37367;SDS011;23240;43.210;27.910;2022-11-20T15:24:41;5.35;;;2.70;;
37367;SDS011;23240;43.210;27.910;2022-11-20T15:27:10;5.18;;;2.75;;
37367;SDS011;23240;43.210;27.910;2022-11-20T15:29:36;10.52;;;3.13;;
37367;SDS011;23240;43.210;27.910;2022-11-20T15:32:01;12.80;;;3.90;;
37367;SDS011;23240;43.210;27.910;2022-11-20T15:34:27;9.02;;;3.83;;
37367;SDS011;23240;43.210;27.910;2022-11-20T15:36:53;17.35;;;3.10;;
37367;SDS011;23240;43.210;27.910;2022-11-20T15:39:19;10.68;;;3.75;;
37367;SDS011;23240;43.210;27.910;2022-11-20T15:41:45;10.32;;;2.95;;
37367;SDS011;23240;43.210;27.910;2022-11-20T15:44:11;7.15;;;3.65;;
37367;SDS011;23240;43.210;27.910;2022-11-20T15:46:39;9.18;;;3.33;;
37367;SDS011;23240;43.210;27.910;2022-11-20T15:49:12;7.55;;;2.97;;
37367;SDS011;23240;43.210;27.910;2022-11-20T15:51:41;5.55;;;2.85;;
37367;SDS011;23240;43.210;27.910;2022-11-20T15:54:12;6.03;;;3.00;;
37367;SDS011;23240;43.210;27.910;2022-11-20T15:56:43;7.07;;;2.85;;
37367;SDS011;23240;43.210;27.910;2022-11-20T15:59:08;6.90;;;3.53;;
37367;SDS011;23240;43.210;27.910;2022-11-20T16:01:34;7.32;;;3.00;;
37367;SDS011;23240;43.210;27.910;2022-11-20T16:04:00;10.95;;;3.25;;
37367;SDS011;23240;43.210;27.910;2022-11-20T16:06:26;7.75;;;3.53;;
37367;SDS011;23240;43.210;27.910;2022-11-20T16:08:51;8.18;;;3.15;;
37367;SDS011;23240;43.210;27.910;2022-11-20T16:11:17;18.20;;;3.95;;
37367;SDS011;23240;43.210;27.910;2022-11-20T16:13:43;10.77;;;3.63;;
37367;SDS011;23240;43.210;27.910;2022-11-20T16:16:32;14.90;;;5.28;;
37367;SDS011;23240;43.210;27.910;2022-11-20T16:18:59;26.80;;;5.88;;
37367;SDS011;23240;43.210;27.910;2022-11-20T16:21:25;19.33;;;6.65;;
37367;SDS011;23240;43.210;27.910;2022-11-20T16:23:57;32.55;;;12.80;;
37367;SDS011;23240;43.210;27.910;2022-11-20T16:26:27;14.43;;;4.88;;
37367;SDS011;23240;43.210;27.910;2022-11-20T16:28:53;17.40;;;4.28;;
37367;SDS011;23240;43.210;27.910;2022-11-20T16:31:20;15.98;;;5.38;;
37367;SDS011;23240;43.210;27.910;2022-11-20T16:33:49;12.70;;;4.82;;
37367;SDS011;23240;43.210;27.910;2022-11-20T16:36:19;12.77;;;4.95;;